createdAt,value
2019-02-22T00:02:06.462Z,30.65
2019-02-22T00:05:13.490Z,24.50
2019-02-22T00:08:20.863Z,32.03
2019-02-22T00:11:27.894Z,37.42
2019-02-22T00:14:34.977Z,33.55
2019-02-22T00:17:41.990Z,27.37
2019-02-22T00:20:48.932Z,39.08
2019-02-22T00:23:56.064Z,34.75
2019-02-22T00:27:05.599Z,28.80
2019-02-22T00:30:11.679Z,29.18
2019-02-22T00:33:19.999Z,26.45
2019-02-22T00:36:27.037Z,40.40
2019-02-22T00:39:33.989Z,32.65
2019-02-22T00:42:41.162Z,27.58
2019-02-22T00:45:48.173Z,29.85
2019-02-22T00:48:55.103Z,31.17
2019-02-22T00:52:02.116Z,33.20
2019-02-22T00:55:09.035Z,39.95
2019-02-22T00:58:17.944Z,32.10
2019-02-22T01:01:24.979Z,29.70
2019-02-22T01:04:31.907Z,33.33
2019-02-22T01:07:38.843Z,32.38
2019-02-22T01:10:45.773Z,24.60
2019-02-22T01:13:52.622Z,26.52
2019-02-22T01:17:01.308Z,39.58
2019-02-22T01:20:08.321Z,33.95
2019-02-22T01:23:18.350Z,38.23
2019-02-22T01:26:25.223Z,31.17
2019-02-22T01:29:32.163Z,30.72
2019-02-22T01:32:39.104Z,33.58
2019-02-22T01:35:46.035Z,30.17
2019-02-22T01:38:52.974Z,32.65
2019-02-22T01:41:59.957Z,24.57
2019-02-22T01:45:08.258Z,38.98
2019-02-22T01:48:18.273Z,27.32
2019-02-22T01:51:25.176Z,34.03
2019-02-22T01:54:32.061Z,23.42
2019-02-22T01:57:39.067Z,26.75
2019-02-22T02:00:46.130Z,28.75
2019-02-22T02:03:53.025Z,31.25
2019-02-22T02:06:59.978Z,32.10
2019-02-22T02:10:07.342Z,21.62
2019-02-22T02:13:17.010Z,24.87
2019-02-22T02:16:23.125Z,32.33
2019-02-22T02:19:30.217Z,30.02
2019-02-22T02:22:37.185Z,22.15
2019-02-22T02:25:44.187Z,30.43
2019-02-22T02:28:51.770Z,31.52
2019-02-22T02:31:58.994Z,19.48
2019-02-22T02:35:06.287Z,27.07
2019-02-22T02:38:13.208Z,28.02
2019-02-22T02:41:21.862Z,24.45
2019-02-22T02:44:28.794Z,28.38
2019-02-22T02:47:37.724Z,27.13
2019-02-22T02:50:44.907Z,24.47
2019-02-22T02:53:52.256Z,26.60
2019-02-22T02:56:59.143Z,21.73
2019-02-22T03:00:08.116Z,28.80
2019-02-22T03:03:17.959Z,26.15
2019-02-22T03:06:48.529Z,21.42
2019-02-22T03:09:55.635Z,17.98
2019-02-22T03:13:02.613Z,35.45
2019-02-22T03:16:09.832Z,29.55
2019-02-22T03:19:16.983Z,21.73
2019-02-22T03:22:23.850Z,24.95
2019-02-22T03:25:30.699Z,29.65
2019-02-22T03:28:39.112Z,24.72
2019-02-22T03:31:45.982Z,25.10
2019-02-22T03:34:52.989Z,26.07
2019-02-22T03:37:59.946Z,23.65
2019-02-22T03:41:06.863Z,23.57
2019-02-22T03:44:13.830Z,26.25
2019-02-22T03:47:23.591Z,29.12
2019-02-22T03:50:31.060Z,19.30
2019-02-22T03:53:50.439Z,25.52
2019-02-22T03:56:57.232Z,23.83
2019-02-22T04:00:04.264Z,25.88
2019-02-22T04:03:12.484Z,21.68
2019-02-22T04:06:19.764Z,28.52
2019-02-22T04:09:26.633Z,17.27
2019-02-22T04:12:33.706Z,30.27
2019-02-22T04:15:40.680Z,20.37
2019-02-22T04:18:47.653Z,25.05
2019-02-22T04:21:54.548Z,17.60
2019-02-22T04:25:01.535Z,24.37
2019-02-22T04:28:08.514Z,18.25
2019-02-22T04:31:16.588Z,17.98
2019-02-22T04:34:23.574Z,21.75
2019-02-22T04:37:30.471Z,28.77
2019-02-22T04:40:37.514Z,29.18
2019-02-22T04:43:44.454Z,23.32
2019-02-22T04:46:51.315Z,19.32
2019-02-22T04:49:58.360Z,20.23
2019-02-22T04:53:05.555Z,24.63
2019-02-22T04:56:12.366Z,18.07
2019-02-22T04:59:19.468Z,18.20
2019-02-22T05:02:26.616Z,16.55
2019-02-22T05:05:35.753Z,19.77
2019-02-22T05:08:43.820Z,14.43
2019-02-22T05:11:50.720Z,18.10
2019-02-22T05:15:11.448Z,19.55
2019-02-22T05:18:08.052Z,25.00
2019-02-22T05:21:17.829Z,18.92
2019-02-22T05:24:24.660Z,21.82
2019-02-22T05:27:31.662Z,23.35
2019-02-22T05:30:38.638Z,19.45
2019-02-22T05:33:45.693Z,22.67
2019-02-22T05:36:52.809Z,22.48
2019-02-22T05:39:59.639Z,11.50
2019-02-22T05:43:06.602Z,12.37
2019-02-22T05:46:13.507Z,12.90
2019-02-22T05:49:22.497Z,12.63
2019-02-22T05:52:29.510Z,13.38
2019-02-22T05:55:36.691Z,11.78
2019-02-22T05:58:43.675Z,10.78
2019-02-22T06:01:50.674Z,12.55
2019-02-22T06:04:57.586Z,9.90
2019-02-22T06:08:04.440Z,8.85
2019-02-22T06:11:11.328Z,9.23
2019-02-22T06:14:20.972Z,11.63
2019-02-22T06:17:27.925Z,9.85
2019-02-22T06:20:34.890Z,5.72
2019-02-22T06:23:41.879Z,9.23
2019-02-22T06:26:48.875Z,7.85
2019-02-22T06:29:56.913Z,8.80
2019-02-22T06:33:03.773Z,6.85
2019-02-22T06:36:10.726Z,8.48
2019-02-22T06:39:18.797Z,6.67
2019-02-22T06:42:25.692Z,7.12
2019-02-22T06:45:32.585Z,7.22
2019-02-22T06:48:39.449Z,8.38
2019-02-22T06:51:46.275Z,8.83
2019-02-22T06:54:53.259Z,9.63
2019-02-22T06:58:00.647Z,9.73
2019-02-22T07:01:07.480Z,5.22
2019-02-22T07:04:16.153Z,10.10
2019-02-22T07:07:23.124Z,8.90
2019-02-22T07:10:31.591Z,11.53
2019-02-22T07:13:38.614Z,13.78
2019-02-22T07:16:45.549Z,7.58
2019-02-22T07:19:52.485Z,9.30
2019-02-22T07:22:59.450Z,8.75
2019-02-22T07:26:06.471Z,9.55
2019-02-22T07:29:13.343Z,10.55
2019-02-22T07:32:21.839Z,10.20
2019-02-22T07:35:28.728Z,12.25
2019-02-22T07:38:35.659Z,8.60
2019-02-22T07:41:45.617Z,7.97
2019-02-22T07:44:52.563Z,6.40
2019-02-22T07:47:59.443Z,8.75
2019-02-22T07:51:06.423Z,9.90
2019-02-22T07:54:13.360Z,10.38
2019-02-22T07:57:23.598Z,7.47
2019-02-22T08:00:30.955Z,12.53
2019-02-22T08:03:37.910Z,10.10
2019-02-22T08:06:44.838Z,14.55
2019-02-22T08:09:54.509Z,11.08
2019-02-22T08:13:01.315Z,9.20
2019-02-22T08:16:08.305Z,9.73
2019-02-22T08:19:16.319Z,9.48
2019-02-22T08:22:23.183Z,7.62
2019-02-22T08:25:30.129Z,5.78
2019-02-22T08:28:37.067Z,5.55
2019-02-22T08:31:43.915Z,5.92
2019-02-22T08:34:50.906Z,6.72
2019-02-22T08:37:57.794Z,7.10
2019-02-22T08:41:04.727Z,6.58
2019-02-22T08:44:15.451Z,6.70
2019-02-22T08:47:28.282Z,7.45
2019-02-22T08:50:37.311Z,8.00
2019-02-22T08:53:44.313Z,7.58
2019-02-22T08:56:51.170Z,5.25
2019-02-22T08:59:58.047Z,9.03
2019-02-22T09:03:06.165Z,7.80
2019-02-22T09:06:13.119Z,6.33
2019-02-22T09:09:21.583Z,5.87
2019-02-22T09:12:28.443Z,7.47
2019-02-22T09:15:38.414Z,6.35
2019-02-22T09:18:45.360Z,5.72
2019-02-22T09:21:52.248Z,5.80
2019-02-22T09:25:00.595Z,5.90
2019-02-22T09:28:07.556Z,5.75
2019-02-22T09:31:14.836Z,6.60
2019-02-22T09:34:21.698Z,8.43
2019-02-22T09:37:28.661Z,8.10
2019-02-22T09:40:35.660Z,7.45
2019-02-22T09:43:42.773Z,10.38
2019-02-22T09:46:49.697Z,5.92
2019-02-22T09:49:56.619Z,5.12
2019-02-22T09:53:03.454Z,7.05
2019-02-22T09:56:11.556Z,5.87
2019-02-22T09:59:19.488Z,4.33
2019-02-22T10:02:26.471Z,6.15
2019-02-22T10:05:34.399Z,6.42
2019-02-22T10:08:41.295Z,7.30
2019-02-22T10:11:48.164Z,5.08
2019-02-22T10:14:55.072Z,7.30
2019-02-22T10:18:02.012Z,5.42
2019-02-22T10:21:09.003Z,7.58
2019-02-22T10:24:18.714Z,7.40
2019-02-22T10:27:25.701Z,8.70
2019-02-22T10:30:32.551Z,7.97
2019-02-22T10:33:39.395Z,7.45
2019-02-22T10:36:46.177Z,4.92
2019-02-22T10:39:53.176Z,7.55
2019-02-22T10:43:00.210Z,7.15
2019-02-22T10:46:07.300Z,7.40
2019-02-22T10:49:14.336Z,6.08
2019-02-22T10:52:23.177Z,9.05
2019-02-22T10:55:30.046Z,5.47
2019-02-22T10:58:36.946Z,8.90
2019-02-22T11:01:43.827Z,10.05
2019-02-22T11:04:50.742Z,11.40
2019-02-22T11:07:57.895Z,8.33
2019-02-22T11:11:05.032Z,8.43
2019-02-22T11:14:11.936Z,6.58
2019-02-22T11:17:19.266Z,4.35
2019-02-22T11:20:26.176Z,7.12
2019-02-22T11:23:33.172Z,6.92
2019-02-22T11:26:40.304Z,6.67
2019-02-22T11:29:49.389Z,6.92
2019-02-22T11:32:55.767Z,7.55
2019-02-22T11:36:03.847Z,6.70
2019-02-22T11:39:10.761Z,7.42
2019-02-22T11:42:21.232Z,7.22
2019-02-22T11:45:28.120Z,6.17
2019-02-22T11:48:34.995Z,8.18
2019-02-22T11:51:41.869Z,8.63
2019-02-22T11:54:48.917Z,7.92
2019-02-22T11:57:55.895Z,7.22
2019-02-22T12:01:02.835Z,7.75
2019-02-22T12:04:09.724Z,7.40
2019-02-22T12:07:18.908Z,6.00
2019-02-22T12:10:27.976Z,7.15
2019-02-22T12:13:34.928Z,8.33
2019-02-22T12:16:41.894Z,8.73
2019-02-22T12:19:48.983Z,5.42
2019-02-22T12:22:55.919Z,8.20
2019-02-22T12:26:02.874Z,8.33
2019-02-22T12:29:09.719Z,5.75
2019-02-22T12:32:18.850Z,7.50
2019-02-22T12:35:25.730Z,6.55
2019-02-22T12:38:32.671Z,5.05
2019-02-22T12:41:40.308Z,7.08
2019-02-22T12:44:49.713Z,6.17
2019-02-22T12:47:56.648Z,8.43
2019-02-22T12:51:03.530Z,7.97
2019-02-22T12:54:10.518Z,7.10
2019-02-22T12:57:19.505Z,6.62
2019-02-22T13:00:26.328Z,7.55
2019-02-22T13:03:33.570Z,7.10
2019-02-22T13:06:41.441Z,6.60
2019-02-22T13:09:48.274Z,7.55
2019-02-22T13:12:55.561Z,8.15
2019-02-22T13:16:02.492Z,6.47
2019-02-22T13:19:09.455Z,6.00
2019-02-22T13:22:16.670Z,5.10
2019-02-22T13:25:23.648Z,7.85
2019-02-22T13:28:30.472Z,7.60
2019-02-22T13:31:37.267Z,9.00
2019-02-22T13:34:44.258Z,10.25
2019-02-22T13:37:51.168Z,10.95
2019-02-22T13:40:58.170Z,11.45
2019-02-22T13:44:05.191Z,7.70
2019-02-22T13:47:12.127Z,10.10
2019-02-22T13:50:28.765Z,12.03
2019-02-22T13:53:35.859Z,12.60
2019-02-22T13:56:42.715Z,14.90
2019-02-22T13:59:49.613Z,14.85
2019-02-22T14:02:56.620Z,15.18
2019-02-22T14:06:03.531Z,10.88
2019-02-22T14:09:10.662Z,10.53
2019-02-22T14:12:18.141Z,13.80
2019-02-22T14:15:25.302Z,15.23
2019-02-22T14:18:32.542Z,12.75
2019-02-22T14:21:39.495Z,10.50
2019-02-22T14:24:46.293Z,12.95
2019-02-22T14:27:53.276Z,7.67
2019-02-22T14:31:00.239Z,11.18
2019-02-22T14:34:07.142Z,14.23
2019-02-22T14:37:14.425Z,14.28
2019-02-22T14:40:21.322Z,12.30
2019-02-22T14:43:28.393Z,14.18
2019-02-22T14:46:35.321Z,11.12
2019-02-22T14:49:42.287Z,11.68
2019-02-22T14:52:49.216Z,13.20
2019-02-22T14:55:56.153Z,11.15
2019-02-22T14:59:02.983Z,10.15
2019-02-22T15:02:09.929Z,13.25
2019-02-22T15:05:17.098Z,14.60
2019-02-22T15:08:27.228Z,13.10
2019-02-22T15:11:34.354Z,12.58
2019-02-22T15:14:41.437Z,14.80
2019-02-22T15:17:57.926Z,15.18
2019-02-22T15:21:07.760Z,12.98
2019-02-22T15:24:14.922Z,12.85
2019-02-22T15:27:21.880Z,12.50
2019-02-22T15:30:28.980Z,11.20
2019-02-22T15:33:36.193Z,13.48
2019-02-22T15:36:43.115Z,11.83
2019-02-22T15:39:50.147Z,12.85
2019-02-22T15:42:57.314Z,11.50
2019-02-22T15:46:11.890Z,12.13
2019-02-22T15:49:13.145Z,13.32
2019-02-22T15:52:20.125Z,13.88
2019-02-22T15:55:27.157Z,12.70
2019-02-22T15:58:34.395Z,13.40
2019-02-22T16:01:41.702Z,12.88
2019-02-22T16:04:55.594Z,13.80
2019-02-22T16:08:03.865Z,13.75
2019-02-22T16:11:12.141Z,12.58
2019-02-22T16:14:19.496Z,14.85
2019-02-22T16:17:26.410Z,12.30
2019-02-22T16:20:36.169Z,10.00
2019-02-22T16:23:43.129Z,12.73
2019-02-22T16:26:51.864Z,8.80
2019-02-22T16:29:59.029Z,14.45
2019-02-22T16:33:05.970Z,11.22
2019-02-22T16:36:12.907Z,11.00
2019-02-22T16:39:19.868Z,16.73
2019-02-22T16:42:26.764Z,16.97
2019-02-22T16:45:33.741Z,18.55
2019-02-22T16:48:40.751Z,20.12
2019-02-22T16:51:47.638Z,18.42
2019-02-22T16:54:54.577Z,13.80
2019-02-22T16:58:01.570Z,17.77
2019-02-22T17:01:08.875Z,14.83
2019-02-22T17:04:18.844Z,15.53
2019-02-22T17:07:28.237Z,12.55
2019-02-22T17:10:35.374Z,14.58
2019-02-22T17:13:42.201Z,13.25
2019-02-22T17:16:49.112Z,12.93
2019-02-22T17:19:58.876Z,19.17
2019-02-22T17:23:06.316Z,15.58
2019-02-22T17:26:17.320Z,15.50
2019-02-22T17:29:25.423Z,15.83
2019-02-22T17:32:34.067Z,16.77
2019-02-22T17:35:43.948Z,16.15
2019-02-22T17:38:50.969Z,14.30
2019-02-22T17:41:57.840Z,10.18
2019-02-22T17:45:05.223Z,12.68
2019-02-22T17:48:12.323Z,15.40
2019-02-22T17:51:19.284Z,16.15
2019-02-22T17:54:26.132Z,11.43
2019-02-22T17:57:32.993Z,12.43
2019-02-22T18:00:39.939Z,13.85
2019-02-22T18:03:48.502Z,10.55
2019-02-22T18:06:55.457Z,10.48
2019-02-22T18:10:02.359Z,11.15
2019-02-22T18:13:09.913Z,11.15
2019-02-22T18:16:17.264Z,11.83
2019-02-22T18:19:24.612Z,12.55
2019-02-22T18:22:31.497Z,11.75
2019-02-22T18:25:38.812Z,16.52
2019-02-22T18:28:45.738Z,13.18
2019-02-22T18:31:53.860Z,12.45
2019-02-22T18:35:00.817Z,13.43
2019-02-22T18:38:07.666Z,13.40
2019-02-22T18:41:15.346Z,17.60
2019-02-22T18:44:22.288Z,12.43
2019-02-22T18:47:32.288Z,10.70
2019-02-22T18:50:39.091Z,12.20
2019-02-22T18:53:45.938Z,11.65
2019-02-22T18:56:52.727Z,12.80
2019-02-22T18:59:59.666Z,11.85
2019-02-22T19:03:06.439Z,11.12
2019-02-22T19:06:13.400Z,11.08
2019-02-22T19:09:20.531Z,7.92
2019-02-22T19:12:27.451Z,13.70
2019-02-22T19:15:34.321Z,8.18
2019-02-22T19:18:41.227Z,9.98
2019-02-22T19:21:48.153Z,11.55
2019-02-22T19:24:55.178Z,9.88
2019-02-22T19:28:02.680Z,10.30
2019-02-22T19:31:09.744Z,9.30
2019-02-22T19:34:20.695Z,11.30
2019-02-22T19:37:27.956Z,12.47
2019-02-22T19:40:35.111Z,12.00
2019-02-22T19:43:42.540Z,9.08
2019-02-22T19:46:49.654Z,12.70
2019-02-22T19:49:56.921Z,11.22
2019-02-22T19:53:04.201Z,13.15
2019-02-22T19:56:11.876Z,9.75
2019-02-22T19:59:19.085Z,13.03
2019-02-22T20:02:26.184Z,11.63
2019-02-22T20:05:34.477Z,12.82
2019-02-22T20:08:41.629Z,11.03
2019-02-22T20:11:48.803Z,11.57
2019-02-22T20:14:56.100Z,10.40
2019-02-22T20:18:04.382Z,12.68
2019-02-22T20:21:11.442Z,8.80
2019-02-22T20:24:18.694Z,9.85
2019-02-22T20:27:25.987Z,11.80
2019-02-22T20:30:33.472Z,13.40
2019-02-22T20:33:40.882Z,10.08
2019-02-22T20:36:47.986Z,11.60
2019-02-22T20:39:55.211Z,7.83
2019-02-22T20:43:03.087Z,11.00
2019-02-22T20:46:10.295Z,10.60
2019-02-22T20:49:20.145Z,16.40
2019-02-22T20:52:27.339Z,12.40
2019-02-22T20:55:34.537Z,9.58
2019-02-22T20:58:41.788Z,10.43
2019-02-22T21:01:49.986Z,14.45
2019-02-22T21:04:57.183Z,16.10
2019-02-22T21:08:04.831Z,13.95
2019-02-22T21:11:12.018Z,9.93
2019-02-22T21:14:19.173Z,12.25
2019-02-22T21:17:26.355Z,13.32
2019-02-22T21:20:33.510Z,12.07
2019-02-22T21:23:40.696Z,10.30
2019-02-22T21:26:47.922Z,11.65
2019-02-22T21:29:55.059Z,9.10
2019-02-22T21:33:03.557Z,13.72
2019-02-22T21:36:10.950Z,16.42
2019-02-22T21:39:18.688Z,12.47
2019-02-22T21:42:26.052Z,13.25
2019-02-22T21:45:33.274Z,12.70
2019-02-22T21:48:40.950Z,14.53
2019-02-22T21:51:48.081Z,14.15
2019-02-22T21:54:55.275Z,11.33
2019-02-22T21:58:02.501Z,13.60
2019-02-22T22:01:09.664Z,13.60
2019-02-22T22:04:17.039Z,13.88
2019-02-22T22:07:24.378Z,15.48
2019-02-22T22:10:31.469Z,13.08
2019-02-22T22:13:38.665Z,11.97
2019-02-22T22:16:45.805Z,15.23
2019-02-22T22:19:53.019Z,13.48
2019-02-22T22:23:00.102Z,11.93
2019-02-22T22:26:07.337Z,11.57
2019-02-22T22:29:17.637Z,18.32
2019-02-22T22:32:24.861Z,12.63
2019-02-22T22:35:32.426Z,18.20
2019-02-22T22:38:39.583Z,14.68
2019-02-22T22:41:46.770Z,13.58
2019-02-22T22:44:53.884Z,16.62
2019-02-22T22:48:01.206Z,16.12
2019-02-22T22:51:09.470Z,13.68
2019-02-22T22:54:18.393Z,13.80
2019-02-22T22:57:25.625Z,10.10
2019-02-22T23:01:06.044Z,13.05
2019-02-22T23:04:13.571Z,16.35
2019-02-22T23:07:20.911Z,13.68
2019-02-22T23:10:28.090Z,16.25
2019-02-22T23:13:35.218Z,12.00
2019-02-22T23:16:42.484Z,12.30
2019-02-22T23:19:49.545Z,15.08
2019-02-22T23:22:58.151Z,13.28
2019-02-22T23:26:05.305Z,13.28
2019-02-22T23:29:12.384Z,15.18
2019-02-22T23:32:21.091Z,15.15
2019-02-22T23:35:28.282Z,14.15
2019-02-22T23:38:35.513Z,12.90
2019-02-22T23:41:42.614Z,11.43
2019-02-22T23:44:49.575Z,15.35
2019-02-22T23:47:56.645Z,14.40
2019-02-22T23:51:03.725Z,14.28
2019-02-22T23:54:10.945Z,16.30
2019-02-22T23:57:20.556Z,11.97
